Time;durP1;ratioP1;P1;durP2;ratioP2;P2;SDS_P1;SDS_P2;PMS_P1;PMS_P2;Temp;Humidity;BMP_temperature;BMP_pressure;BME280_temperature;BME280_humidity;BME280_pressure;Samples;Min_cycle;Max_cycle;Signal;HPM_P1;HPM_P2
2022/11/04 00:03:27;;;;;;;9.90;4.60;;;21.20;73.90;;;;;;214644;1280;22463;-53
2022/11/04 00:08:31;;;;;;;10.50;5.10;;;21.20;73.60;;;;;;214597;1275;26489;-49
2022/11/04 00:13:34;;;;;;;11.80;4.50;;;21.20;73.40;;;;;;214539;1282;25512;-52
2022/11/04 00:18:41;;;;;;;10.00;4.90;;;21.20;73.10;;;;;;214307;1282;25373;-52
2022/11/04 00:29:07;;;;;;;11.10;5.30;;;21.30;73.00;;;;;;215928;1281;25375;-51
2022/11/04 00:34:11;;;;;;;10.00;5.20;;;21.30;72.80;;;;;;214635;1281;24033;-51
2022/11/04 00:39:15;;;;;;;9.40;4.70;;;21.30;72.90;;;;;;214595;1282;22587;-51
2022/11/04 00:44:18;;;;;;;8.00;4.50;;;21.20;72.70;;;;;;214591;1275;25324;-51
2022/11/04 00:49:22;;;;;;;8.50;4.50;;;21.20;72.60;;;;;;214448;1279;25373;-51
2022/11/04 00:54:33;;;;;;;8.70;4.50;;;21.10;72.50;;;;;;214723;1282;25411;-52
2022/11/04 00:59:38;;;;;;;10.40;4.60;;;21.10;72.60;;;;;;215247;1304;26831;-51
2022/11/04 01:04:42;;;;;;;9.20;4.80;;;21.20;72.50;;;;;;214376;1282;22484;-51
2022/11/04 01:09:48;;;;;;;7.40;4.60;;;21.10;72.80;;;;;;215920;1283;24256;-49
2022/11/04 01:14:52;;;;;;;10.20;4.50;;;21.10;72.20;;;;;;214413;1275;22468;-51
2022/11/04 01:19:56;;;;;;;10.40;4.50;;;21.10;72.30;;;;;;214515;1282;22706;-52
2022/11/04 01:25:00;;;;;;;7.70;4.70;;;21.10;72.70;;;;;;214423;1275;26595;-52
2022/11/04 01:30:04;;;;;;;9.50;5.10;;;21.00;72.10;;;;;;214747;1283;24250;-51
2022/11/04 01:35:09;;;;;;;8.00;4.90;;;21.10;72.30;;;;;;214653;1274;24236;-51
2022/11/04 01:40:13;;;;;;;8.50;4.50;;;21.10;72.20;;;;;;214662;1282;24189;-51
2022/11/04 01:45:20;;;;;;;9.40;4.90;;;21.10;72.20;;;;;;214358;1282;22474;-53
2022/11/04 01:50:27;;;;;;;8.50;4.80;;;21.10;72.30;;;;;;214684;1285;25554;-52
2022/11/04 01:55:34;;;;;;;6.70;4.40;;;21.00;72.30;;;;;;214661;1272;24276;-51
2022/11/04 02:00:39;;;;;;;9.60;4.50;;;21.00;72.10;;;;;;214534;1297;22479;-52
2022/11/04 02:05:43;;;;;;;7.90;4.30;;;21.00;72.00;;;;;;214400;1285;22457;-54
2022/11/04 02:10:53;;;;;;;8.00;4.60;;;21.00;72.50;;;;;;214393;1272;26339;-51
2022/11/04 02:16:18;;;;;;;8.90;4.50;;;21.00;72.10;;;;;;214707;1282;23419;-52
2022/11/04 02:21:38;;;;;;;6.20;4.00;;;21.00;72.20;;;;;;214721;1279;25550;-51
2022/11/04 02:27:00;;;;;;;7.80;4.70;;;20.90;72.10;;;;;;214504;1272;24231;-53
2022/11/04 02:32:31;;;;;;;7.40;4.40;;;20.90;72.10;;;;;;214789;1279;26439;-52
2022/11/04 02:37:41;;;;;;;;;;;20.90;72.10;;;;;;214698;1303;26442;-56
2022/11/04 02:42:54;;;;;;;7.50;4.50;;;20.90;72.20;;;;;;214781;1275;26566;-54
2022/11/04 02:48:31;;;;;;;7.50;4.20;;;20.90;72.20;;;;;;214698;1288;25357;-54
2022/11/04 02:53:46;;;;;;;6.90;4.20;;;20.90;72.30;;;;;;214800;1280;23439;-51
2022/11/04 02:58:58;;;;;;;7.30;4.40;;;20.90;72.30;;;;;;214696;1282;22706;-51
2022/11/04 03:04:09;;;;;;;8.40;4.60;;;20.80;72.20;;;;;;214779;1295;23854;-52
2022/11/04 03:09:14;;;;;;;5.70;4.10;;;20.80;72.10;;;;;;214759;1288;25302;-52
2022/11/04 03:14:23;;;;;;;6.50;4.40;;;20.80;72.20;;;;;;214794;1288;23073;-49
2022/11/04 03:19:41;;;;;;;6.20;4.10;;;20.80;72.10;;;;;;214774;1282;25218;-52
2022/11/04 03:24:47;;;;;;;7.10;4.60;;;20.80;72.20;;;;;;214733;1272;23837;-53
2022/11/04 03:30:22;;;;;;;6.70;4.30;;;20.80;72.30;;;;;;214736;1278;22529;-53
2022/11/04 03:35:27;;;;;;;7.30;4.00;;;20.80;72.10;;;;;;214701;1272;24264;-52
2022/11/04 03:40:31;;;;;;;7.20;4.50;;;20.80;72.30;;;;;;214431;1272;25348;-52
2022/11/04 03:45:36;;;;;;;5.90;3.90;;;20.70;72.20;;;;;;214449;1279;23705;-52
2022/11/04 03:50:47;;;;;;;6.00;3.70;;;20.80;72.00;;;;;;214475;1295;24165;-54
2022/11/04 03:56:10;;;;;;;;;;;21.10;71.50;;;;;;214725;1272;24239;-49
2022/11/04 04:01:38;;;;;;;7.90;4.10;;;21.40;70.50;;;;;;214744;1278;25332;-49
2022/11/04 04:06:45;;;;;;;7.40;4.10;;;21.70;69.90;;;;;;214598;1279;22761;-54
2022/11/04 04:12:05;;;;;;;5.40;3.60;;;21.80;69.90;;;;;;214695;1272;25310;-51
2022/11/04 04:17:29;;;;;;;6.60;4.00;;;21.90;69.20;;;;;;214727;1280;22587;-53
2022/11/04 04:22:39;;;;;;;5.90;3.50;;;22.00;68.80;;;;;;214745;1279;25278;-50
2022/11/04 04:27:46;;;;;;;6.30;3.30;;;22.00;68.40;;;;;;214579;1283;22577;-52
2022/11/04 04:32:56;;;;;;;5.80;3.90;;;22.10;68.40;;;;;;214750;1279;22518;-48
2022/11/04 04:48:50;;;;;;;5.70;4.00;;;22.10;68.50;;;;;;214817;1279;24011;-52
2022/11/04 04:53:54;;;;;;;5.00;3.20;;;22.10;68.50;;;;;;214810;1289;25414;-52
2022/11/04 04:58:58;;;;;;;5.20;3.10;;;22.10;68.60;;;;;;214787;1272;24281;-51
2022/11/04 05:04:01;;;;;;;5.70;3.50;;;22.00;68.80;;;;;;214701;1282;25906;-54
2022/11/04 05:09:07;;;;;;;7.00;4.00;;;22.00;68.70;;;;;;214743;1283;24922;-52
2022/11/04 05:14:11;;;;;;;6.40;3.60;;;21.90;68.90;;;;;;214734;1282;25300;-52
2022/11/04 05:19:15;;;;;;;6.30;3.80;;;21.90;69.00;;;;;;214707;1282;23876;-55
2022/11/04 05:24:19;;;;;;;5.50;3.50;;;21.80;69.20;;;;;;214721;1272;25290;-51
2022/11/04 05:29:22;;;;;;;5.30;3.40;;;21.80;69.60;;;;;;214881;1280;24166;-54
2022/11/04 05:34:26;;;;;;;5.00;2.90;;;21.80;69.30;;;;;;214746;1280;24438;-51
2022/11/04 05:39:30;;;;;;;6.10;3.50;;;21.80;70.10;;;;;;214660;1280;22719;-53
2022/11/04 05:44:33;;;;;;;5.40;3.50;;;21.90;69.40;;;;;;214873;1285;22481;-51
2022/11/04 05:49:37;;;;;;;5.80;3.60;;;21.90;69.60;;;;;;214807;1280;26486;-51
2022/11/04 05:54:41;;;;;;;5.20;3.50;;;22.00;69.10;;;;;;214710;1272;25562;-54
2022/11/04 05:59:45;;;;;;;6.70;3.80;;;22.00;69.30;;;;;;214709;1288;26593;-52
2022/11/04 06:04:49;;;;;;;6.80;3.80;;;22.00;68.90;;;;;;214676;1278;25289;-52
2022/11/04 06:09:52;;;;;;;5.30;3.40;;;22.00;68.80;;;;;;214701;1280;153912;-53
2022/11/04 06:14:59;;;;;;;6.20;3.30;;;22.00;69.00;;;;;;214596;1273;25216;-53
2022/11/04 06:20:05;;;;;;;5.70;3.30;;;21.90;69.10;;;;;;214865;1289;23199;-52
2022/11/04 06:25:10;;;;;;;5.60;3.80;;;21.90;69.40;;;;;;214749;1272;27614;-52
2022/11/04 06:30:14;;;;;;;4.80;3.00;;;21.80;69.50;;;;;;214757;1280;22467;-53
2022/11/04 06:35:18;;;;;;;4.30;3.30;;;21.80;69.40;;;;;;214586;1282;25210;-52
2022/11/04 06:40:27;;;;;;;7.10;3.90;;;21.90;69.50;;;;;;214763;1280;24178;-52
2022/11/04 06:45:31;;;;;;;7.00;3.50;;;21.80;69.80;;;;;;214739;1294;25384;-51
2022/11/04 06:50:38;;;;;;;6.90;3.90;;;21.80;70.10;;;;;;214822;1280;22481;-50
2022/11/04 06:55:43;;;;;;;8.70;3.50;;;21.80;70.50;;;;;;214844;1279;25345;-51
2022/11/04 07:00:52;;;;;;;7.50;3.60;;;21.80;70.60;;;;;;214817;1278;25276;-51
2022/11/04 07:05:56;;;;;;;7.80;3.90;;;21.70;70.80;;;;;;214751;1280;23483;-53
2022/11/04 07:11:00;;;;;;;6.90;4.00;;;21.80;70.60;;;;;;214579;1281;24284;-52
2022/11/04 07:16:05;;;;;;;6.80;3.30;;;21.80;71.00;;;;;;214814;1280;22709;-51
2022/11/04 07:21:10;;;;;;;10.00;3.50;;;21.70;71.60;;;;;;214648;1281;24005;-49
2022/11/04 07:26:13;;;;;;;8.70;3.70;;;21.80;71.30;;;;;;214835;1272;25413;-49
2022/11/04 07:31:17;;;;;;;14.30;3.60;;;21.70;71.50;;;;;;214777;1279;25425;-53
2022/11/04 07:36:25;;;;;;;12.50;4.00;;;21.70;71.40;;;;;;214792;1279;22534;-52
2022/11/04 07:41:29;;;;;;;9.70;4.40;;;21.60;71.40;;;;;;214435;1280;25333;-50
2022/11/04 07:46:33;;;;;;;13.10;4.20;;;21.60;70.90;;;;;;216792;1280;26483;-49
2022/11/04 07:51:37;;;;;;;12.10;4.50;;;21.60;70.60;;;;;;214721;1282;25340;-50
2022/11/04 07:56:40;;;;;;;8.60;4.50;;;21.60;70.30;;;;;;215115;1276;25417;-48
2022/11/04 08:01:44;;;;;;;11.80;4.80;;;21.60;70.20;;;;;;215073;1299;25447;-50
2022/11/04 08:06:48;;;;;;;13.20;5.80;;;21.60;69.70;;;;;;215130;1277;23067;-50
2022/11/04 08:11:52;;;;;;;8.20;4.50;;;21.50;69.50;;;;;;215079;1277;23843;-50
2022/11/04 08:16:55;;;;;;;7.80;4.80;;;21.60;69.40;;;;;;215003;1276;24175;-49
2022/11/04 08:21:59;;;;;;;9.80;4.70;;;21.50;69.20;;;;;;215115;1280;22613;-48
2022/11/04 08:27:09;;;;;;;10.80;4.90;;;21.50;69.00;;;;;;215034;1286;22461;-50
2022/11/04 08:32:12;;;;;;;9.20;4.80;;;21.40;68.80;;;;;;215037;1278;24066;-49
2022/11/04 08:37:16;;;;;;;7.80;5.10;;;21.40;68.80;;;;;;215047;1269;22457;-50
2022/11/04 08:42:20;;;;;;;9.90;5.10;;;21.40;68.40;;;;;;215134;1277;22472;-52
2022/11/04 08:47:23;;;;;;;7.10;4.90;;;21.40;68.50;;;;;;215122;1277;24207;-51
2022/11/04 08:52:27;;;;;;;8.90;4.70;;;21.40;68.50;;;;;;215111;1277;24287;-50
2022/11/04 08:57:31;;;;;;;9.00;5.50;;;21.40;68.30;;;;;;215111;1276;25458;-51
2022/11/04 09:02:35;;;;;;;12.60;5.50;;;21.40;68.40;;;;;;215087;1277;25335;-51
2022/11/04 09:07:39;;;;;;;8.40;5.50;;;21.30;68.20;;;;;;215166;1282;24250;-49
2022/11/04 09:12:44;;;;;;;6.90;4.90;;;21.30;68.20;;;;;;215084;1276;22471;-52
2022/11/04 09:17:48;;;;;;;7.50;5.30;;;21.30;68.60;;;;;;215097;1275;27725;-51
2022/11/04 09:22:54;;;;;;;9.20;5.10;;;21.30;67.90;;;;;;215164;1283;24242;-53
2022/11/04 09:27:58;;;;;;;10.30;4.90;;;21.40;67.60;;;;;;215007;1276;22570;-54
2022/11/04 09:33:05;;;;;;;11.60;6.00;;;21.40;67.50;;;;;;214869;1277;22709;-53
2022/11/04 09:38:10;;;;;;;16.40;5.00;;;21.40;67.30;;;;;;214820;1279;23839;-56
2022/11/04 09:43:41;;;;;;;11.80;5.70;;;21.50;67.70;;;;;;214968;1269;22451;-55
2022/11/04 09:48:52;;;;;;;14.10;5.40;;;21.50;67.80;;;;;;214919;1276;22477;-52
2022/11/04 09:54:06;;;;;;;11.10;5.20;;;21.50;67.80;;;;;;214816;1276;22466;-54
2022/11/04 09:59:16;;;;;;;8.30;4.60;;;21.50;67.80;;;;;;214788;1278;24243;-51
2022/11/04 10:04:40;;;;;;;10.10;5.40;;;21.50;67.80;;;;;;214805;1275;22694;-49
2022/11/04 10:09:55;;;;;;;11.70;5.70;;;21.50;67.60;;;;;;214701;1280;22640;-50
2022/11/04 10:15:23;;;;;;;11.30;5.90;;;21.50;67.60;;;;;;214911;1286;25324;-52
2022/11/04 10:20:44;;;;;;;10.20;5.80;;;21.50;67.50;;;;;;214949;1287;22562;-52
2022/11/04 10:25:53;;;;;;;;;;;21.50;67.80;;;;;;215026;1279;25528;-51
2022/11/04 10:31:09;;;;;;;10.40;6.30;;;21.50;67.40;;;;;;214935;1280;25450;-52
2022/11/04 10:36:17;;;;;;;21.20;6.20;;;21.50;67.30;;;;;;214465;1278;22552;-52
2022/11/04 10:41:36;;;;;;;10.00;6.10;;;21.50;67.30;;;;;;215011;1279;22456;-50
2022/11/04 10:46:52;;;;;;;10.00;4.90;;;21.50;67.30;;;;;;214815;1276;26597;-52
2022/11/04 10:51:56;;;;;;;10.70;5.70;;;21.50;67.20;;;;;;214717;1284;26140;-53
2022/11/04 10:57:02;;;;;;;15.40;5.80;;;21.60;67.00;;;;;;214885;1285;24240;-50
2022/11/04 11:02:06;;;;;;;9.60;5.70;;;21.60;67.10;;;;;;215026;1281;22494;-53
2022/11/04 11:07:17;;;;;;;10.90;5.80;;;21.50;67.70;;;;;;215012;1275;24189;-53
2022/11/04 11:12:29;;;;;;;10.00;5.00;;;21.50;68.10;;;;;;215014;1280;26517;-53
2022/11/04 11:17:59;;;;;;;10.30;5.10;;;21.50;68.10;;;;;;215048;1275;26601;-52
2022/11/04 11:23:08;;;;;;;11.00;6.20;;;21.50;68.10;;;;;;214470;1275;24278;-53
2022/11/04 11:28:24;;;;;;;8.00;5.70;;;21.50;68.40;;;;;;214822;1281;26067;-54
2022/11/04 11:33:31;;;;;;;10.60;5.80;;;21.40;68.80;;;;;;214992;1289;25950;-52
2022/11/04 11:38:35;;;;;;;17.10;5.90;;;21.50;68.70;;;;;;215036;1283;26600;-52
2022/11/04 11:43:45;;;;;;;8.10;5.20;;;21.50;69.30;;;;;;215009;1282;22476;-49
2022/11/04 11:48:59;;;;;;;10.20;5.50;;;21.50;69.20;;;;;;214953;1279;23048;-48
2022/11/04 11:54:16;;;;;;;;;;;21.50;69.20;;;;;;214720;1275;24278;-51
2022/11/04 11:59:40;;;;;;;17.10;5.90;;;21.50;69.50;;;;;;214815;1279;22514;-56
2022/11/04 12:05:09;;;;;;;9.20;5.80;;;21.50;70.10;;;;;;214947;1278;22458;-57
2022/11/04 12:11:03;;;;;;;11.30;5.80;;;21.50;70.80;;;;;;215260;1277;22705;-57
2022/11/04 12:16:22;;;;;;;9.60;6.10;;;21.50;70.60;;;;;;214879;1286;23162;-56
2022/11/04 12:21:34;;;;;;;9.80;4.90;;;21.50;70.80;;;;;;214843;1283;24231;-58
2022/11/04 12:27:12;;;;;;;8.60;5.30;;;21.50;70.90;;;;;;214800;1283;23839;-58
2022/11/04 12:32:45;;;;;;;12.10;5.30;;;21.50;71.00;;;;;;214843;1277;22702;-57
2022/11/04 12:37:55;;;;;;;9.30;5.80;;;21.50;70.90;;;;;;215149;1277;26485;-58
2022/11/04 12:43:14;;;;;;;9.00;6.20;;;21.50;71.00;;;;;;215059;1300;24868;-58
2022/11/04 12:48:46;;;;;;;10.60;5.50;;;21.40;71.20;;;;;;214989;1301;23887;-58
2022/11/04 12:54:34;;;;;;;8.60;5.30;;;21.40;71.10;;;;;;215097;1286;23832;-58
2022/11/04 12:59:53;;;;;;;10.30;5.80;;;21.40;71.30;;;;;;215020;1299;24009;-56
2022/11/04 13:05:17;;;;;;;9.50;6.30;;;21.40;71.00;;;;;;214950;1283;24215;-59
2022/11/04 13:10:51;;;;;;;18.70;7.20;;;21.40;71.20;;;;;;215017;1292;23840;-60
2022/11/04 13:15:59;;;;;;;7.60;5.60;;;21.40;71.80;;;;;;215124;1278;22472;-60
2022/11/04 13:21:26;;;;;;;10.50;6.30;;;21.40;71.70;;;;;;215093;1281;22449;-58
2022/11/04 13:26:35;;;;;;;10.10;6.10;;;21.40;71.80;;;;;;214963;1282;25520;-56
2022/11/04 13:31:51;;;;;;;9.00;6.10;;;21.30;71.70;;;;;;214877;1279;25406;-57
2022/11/04 13:37:33;;;;;;;9.30;5.80;;;21.40;71.70;;;;;;215018;1286;25319;-56
2022/11/04 13:43:48;;;;;;;9.80;6.30;;;21.40;72.10;;;;;;214566;1285;25345;-56
2022/11/04 13:48:31;;;;;;;8.90;6.30;;;21.30;71.80;;;;;;215270;1291;24305;-58
2022/11/04 13:53:50;;;;;;;8.10;5.60;;;21.30;72.10;;;;;;214854;1276;24011;-54
2022/11/04 13:59:00;;;;;;;12.90;5.60;;;21.30;71.80;;;;;;214974;1276;22537;-58
2022/11/04 14:04:19;;;;;;;;;;;21.40;71.30;;;;;;214983;1277;25352;-60
2022/11/04 14:09:35;;;;;;;11.40;6.20;;;21.30;71.70;;;;;;215239;1300;24258;-57
2022/11/04 14:14:49;;;;;;;10.20;7.00;;;21.40;71.70;;;;;;214935;1285;23879;-58
2022/11/04 14:20:07;;;;;;;18.90;8.30;;;21.40;72.20;;;;;;215117;1301;22468;-57
2022/11/04 14:25:28;;;;;;;17.50;7.20;;;21.40;72.70;;;;;;215029;1282;24443;-58
2022/11/04 14:30:54;;;;;;;13.70;7.70;;;21.40;71.20;;;;;;214951;1276;26724;-59
2022/11/04 14:36:19;;;;;;;16.20;8.00;;;21.40;71.40;;;;;;214873;1275;23781;-57
2022/11/04 14:41:53;;;;;;;11.90;6.70;;;21.30;71.00;;;;;;214987;1293;25301;-58
2022/11/04 14:47:05;;;;;;;16.80;7.70;;;21.40;70.90;;;;;;215060;1298;25320;-59
2022/11/04 14:52:33;;;;;;;18.40;8.50;;;21.30;70.60;;;;;;215130;1288;22462;-59
2022/11/04 14:57:48;;;;;;;16.60;7.80;;;21.30;71.10;;;;;;214922;1298;26491;-56
2022/11/04 15:03:08;;;;;;;11.80;6.90;;;21.30;71.40;;;;;;215147;1300;22574;-58
2022/11/04 15:08:34;;;;;;;16.10;7.80;;;21.40;71.50;;;;;;215008;1299;22541;-59
2022/11/04 15:14:02;;;;;;;17.10;7.40;;;21.40;72.00;;;;;;214942;1286;22577;-58
2022/11/04 15:19:09;;;;;;;20.20;8.60;;;21.40;72.10;;;;;;214851;1277;24246;-58
2022/11/04 15:24:19;;;;;;;17.10;8.60;;;21.40;71.80;;;;;;214776;1285;24289;-59
2022/11/04 15:29:27;;;;;;;15.90;8.70;;;21.40;72.60;;;;;;214946;1291;22463;-57
2022/11/04 15:34:39;;;;;;;19.90;9.20;;;21.40;73.00;;;;;;215035;1295;24257;-57
2022/11/04 15:39:45;;;;;;;25.20;9.60;;;21.50;71.80;;;;;;214949;1282;26467;-58
2022/11/04 15:44:54;;;;;;;24.60;9.50;;;21.50;72.00;;;;;;215069;1286;22461;-58
2022/11/04 15:50:24;;;;;;;27.90;10.30;;;21.50;72.70;;;;;;215099;1296;22457;-58
2022/11/04 15:55:36;;;;;;;17.70;10.40;;;21.40;72.90;;;;;;215103;1269;26651;-58
2022/11/04 16:00:56;;;;;;;18.50;10.50;;;21.40;72.70;;;;;;214899;1276;24250;-58
2022/11/04 16:06:12;;;;;;;17.60;10.00;;;21.40;71.70;;;;;;215043;1280;22585;-58
2022/11/04 16:11:18;;;;;;;19.10;10.10;;;21.40;72.00;;;;;;215046;1275;25245;-58
2022/11/04 16:16:27;;;;;;;19.20;10.70;;;21.40;71.80;;;;;;215093;1286;22757;-57
2022/11/04 16:21:42;;;;;;;21.20;10.60;;;21.30;71.50;;;;;;215042;1277;22483;-57
2022/11/04 16:26:55;;;;;;;32.30;11.90;;;21.30;71.00;;;;;;215041;1291;22469;-57
2022/11/04 16:32:23;;;;;;;25.50;12.20;;;21.30;72.70;;;;;;214932;1286;25420;-57
2022/11/04 16:38:05;;;;;;;26.60;12.40;;;21.40;73.40;;;;;;215027;1290;23840;-58
2022/11/04 16:43:10;;;;;;;22.70;12.70;;;21.40;73.20;;;;;;214957;1285;22468;-59
2022/11/04 16:48:26;;;;;;;21.00;12.00;;;21.40;73.00;;;;;;215077;1278;25536;-57
2022/11/04 16:53:51;;;;;;;20.40;11.40;;;21.30;72.70;;;;;;215048;1278;24236;-57
2022/11/04 16:58:59;;;;;;;19.10;12.30;;;21.30;72.10;;;;;;215169;1282;25664;-58
2022/11/04 17:04:08;;;;;;;23.90;12.00;;;21.30;71.70;;;;;;214958;1300;24028;-60
2022/11/04 17:09:31;;;;;;;21.40;12.60;;;21.30;71.80;;;;;;215154;1289;23518;-59
2022/11/04 17:15:05;;;;;;;21.60;12.20;;;21.30;71.90;;;;;;214988;1282;22472;-58
2022/11/04 17:20:51;;;;;;;19.00;12.50;;;21.30;71.80;;;;;;215102;1288;23506;-59
2022/11/04 17:26:03;;;;;;;21.80;11.90;;;21.30;71.40;;;;;;215066;1297;23944;-58
2022/11/04 17:31:27;;;;;;;19.40;12.10;;;21.20;71.10;;;;;;215046;1300;25442;-58
2022/11/04 17:36:35;;;;;;;19.10;11.60;;;21.20;71.00;;;;;;215078;1295;23932;-58
2022/11/04 17:47:07;;;;;;;22.80;12.00;;;21.10;70.90;;;;;;215061;1278;25308;-58
2022/11/04 17:52:11;;;;;;;21.80;12.10;;;21.20;70.40;;;;;;215127;1277;26604;-59
2022/11/04 17:57:17;;;;;;;20.50;12.00;;;21.20;70.30;;;;;;215313;1285;25288;-59
2022/11/04 18:02:21;;;;;;;22.70;13.60;;;21.20;70.90;;;;;;215325;1283;24919;-57
2022/11/04 18:07:30;;;;;;;27.20;13.40;;;21.10;70.60;;;;;;218454;1276;22762;-60
2022/11/04 18:12:35;;;;;;;26.70;15.50;;;21.20;70.70;;;;;;220454;1282;177441;-59
2022/11/04 18:17:44;;;;;;;23.50;15.00;;;21.20;71.70;;;;;;217046;1278;24212;-59
2022/11/04 18:22:54;;;;;;;27.30;15.10;;;21.30;71.00;;;;;;215028;1287;25432;-58
2022/11/04 18:28:02;;;;;;;27.40;14.40;;;21.40;70.90;;;;;;214956;1284;24246;-59
2022/11/04 18:33:12;;;;;;;23.40;13.80;;;21.20;70.40;;;;;;214909;1292;25283;-59
2022/11/04 18:38:21;;;;;;;26.20;14.00;;;21.20;70.80;;;;;;215065;1298;26492;-57
2022/11/04 18:43:28;;;;;;;26.80;13.20;;;21.20;71.50;;;;;;215137;1281;22465;-59
2022/11/04 18:48:36;;;;;;;22.30;13.00;;;21.30;71.30;;;;;;215046;1281;22715;-58
2022/11/04 18:53:39;;;;;;;18.80;12.50;;;21.30;71.60;;;;;;214827;1285;22695;-57
2022/11/04 18:58:47;;;;;;;24.20;12.90;;;21.30;71.70;;;;;;215052;1281;23216;-58
2022/11/04 19:03:55;;;;;;;21.30;13.40;;;21.20;71.90;;;;;;215192;1282;22716;-59
2022/11/04 19:09:07;;;;;;;24.00;13.10;;;21.30;72.00;;;;;;215157;1293;25372;-59
2022/11/04 19:14:32;;;;;;;22.90;11.90;;;21.30;72.00;;;;;;215066;1285;22493;-58
2022/11/04 19:19:40;;;;;;;20.20;12.90;;;21.30;72.10;;;;;;215124;1282;24273;-58
2022/11/04 19:24:44;;;;;;;20.80;11.40;;;21.30;72.20;;;;;;215083;1289;22477;-58
2022/11/04 19:29:50;;;;;;;19.40;12.20;;;21.20;72.00;;;;;;215025;1292;25967;-58
2022/11/04 19:35:06;;;;;;;27.80;12.00;;;21.20;72.20;;;;;;215295;1276;23890;-57
2022/11/04 19:40:26;;;;;;;23.40;13.00;;;21.20;72.30;;;;;;215044;1277;25267;-58
2022/11/04 19:45:37;;;;;;;23.30;11.80;;;21.30;72.30;;;;;;215247;1276;24389;-59
2022/11/04 19:50:48;;;;;;;25.70;12.20;;;21.20;72.40;;;;;;215147;1279;22458;-58
2022/11/04 19:56:03;;;;;;;;;;;21.20;73.30;;;;;;215083;1278;22861;-58
2022/11/04 20:01:26;;;;;;;30.40;12.20;;;21.30;73.00;;;;;;215205;1285;24190;-63
2022/11/04 20:06:37;;;;;;;24.10;11.70;;;21.30;73.60;;;;;;215002;1279;22466;-62
2022/11/04 20:17:10;;;;;;;22.00;11.70;;;21.30;72.80;;;;;;215164;1275;24240;-60
2022/11/04 20:22:15;;;;;;;23.10;12.40;;;21.30;72.70;;;;;;214968;1282;24295;-61
2022/11/04 20:27:22;;;;;;;20.20;11.90;;;21.20;73.30;;;;;;215153;1294;25294;-59
2022/11/04 20:32:35;;;;;;;25.00;11.60;;;21.20;72.50;;;;;;214953;1276;25586;-61
2022/11/04 20:37:49;;;;;;;21.40;12.50;;;21.20;72.20;;;;;;214822;1282;22474;-60
2022/11/04 20:42:56;;;;;;;22.60;12.00;;;21.20;72.10;;;;;;214949;1276;24502;-61
2022/11/04 20:47:59;;;;;;;19.60;11.30;;;21.10;72.00;;;;;;214876;1277;23382;-60
2022/11/04 20:53:10;;;;;;;23.90;13.40;;;21.10;71.80;;;;;;214857;1282;24251;-63
2022/11/04 20:58:30;;;;;;;18.70;11.70;;;21.10;71.70;;;;;;214879;1281;22461;-62
2022/11/04 21:03:37;;;;;;;17.20;11.30;;;21.10;72.20;;;;;;214995;1285;24385;-63
2022/11/04 21:08:49;;;;;;;17.50;11.10;;;21.10;71.80;;;;;;214907;1269;24583;-61
2022/11/04 21:13:54;;;;;;;18.20;11.00;;;21.00;71.90;;;;;;214816;1276;24188;-61
2022/11/04 21:19:00;;;;;;;19.20;11.30;;;21.00;72.10;;;;;;215042;1269;22455;-61
2022/11/04 21:24:12;;;;;;;13.30;10.20;;;21.10;72.50;;;;;;214821;1277;22681;-62
2022/11/04 21:29:19;;;;;;;14.70;10.10;;;21.10;72.40;;;;;;214997;1292;23882;-61
2022/11/04 21:34:27;;;;;;;16.30;10.50;;;21.10;72.50;;;;;;214916;1288;25289;-62
2022/11/04 21:39:36;;;;;;;16.80;10.80;;;21.00;72.40;;;;;;215012;1294;24169;-60
2022/11/04 21:44:55;;;;;;;18.70;11.80;;;21.00;72.60;;;;;;215024;1294;22459;-61
2022/11/04 21:50:08;;;;;;;20.70;12.10;;;21.10;75.80;;;;;;214979;1276;23118;-61
2022/11/04 21:55:31;;;;;;;17.00;10.60;;;21.20;75.10;;;;;;215013;1278;23348;-61
2022/11/04 22:00:54;;;;;;;17.10;10.30;;;21.20;74.70;;;;;;215257;1276;23036;-59
2022/11/04 22:06:08;;;;;;;14.90;10.20;;;21.20;74.70;;;;;;214830;1277;25290;-61
2022/11/04 22:11:19;;;;;;;13.70;10.30;;;21.20;74.80;;;;;;215016;1278;22530;-61
2022/11/04 22:16:26;;;;;;;14.80;9.80;;;21.20;75.00;;;;;;215022;1282;22499;-61
2022/11/04 22:21:31;;;;;;;15.10;9.70;;;21.20;75.30;;;;;;214956;1282;24250;-62
2022/11/04 22:26:37;;;;;;;17.80;10.20;;;21.20;75.00;;;;;;214956;1281;22451;-60
2022/11/04 22:31:43;;;;;;;14.90;9.40;;;21.10;75.50;;;;;;215067;1281;25509;-62
2022/11/04 22:36:58;;;;;;;13.40;9.20;;;21.10;75.00;;;;;;215027;1294;24283;-61
2022/11/04 22:42:38;;;;;;;15.00;8.90;;;21.10;75.10;;;;;;214963;1271;23384;-62
2022/11/04 22:47:42;;;;;;;16.80;9.60;;;21.10;75.10;;;;;;215091;1286;25507;-61
2022/11/04 22:52:57;;;;;;;14.60;9.40;;;21.10;75.00;;;;;;215113;1294;26459;-61
2022/11/04 22:58:12;;;;;;;15.30;9.70;;;21.10;75.00;;;;;;215044;1294;26621;-61
2022/11/04 23:03:26;;;;;;;;;;;21.10;75.20;;;;;;214942;1272;22428;-61
2022/11/04 23:08:41;;;;;;;;;;;21.10;75.40;;;;;;214932;1286;23962;-61
2022/11/04 23:19:35;;;;;;;12.90;9.00;;;21.10;75.00;;;;;;214998;1292;25958;-61
2022/11/04 23:25:12;;;;;;;11.20;8.10;;;21.10;74.90;;;;;;215447;1276;22469;-61
2022/11/04 23:30:38;;;;;;;13.60;8.80;;;21.10;74.90;;;;;;215435;1294;22488;-60
